sensor_id;sensor_type;location;lat;lon;timestamp;pressure;altitude;pressure_sealevel;temperature
63689;BMP280;54895;40.928;14.480;2023-03-23T00:01:09;101108.72;;;15.16
63689;BMP280;54895;40.928;14.480;2023-03-23T00:08:02;101026.25;;;14.36
63689;BMP280;54895;40.928;14.480;2023-03-23T00:10:29;101000.88;;;14.30
63689;BMP280;54895;40.928;14.480;2023-03-23T00:12:59;100989.03;;;14.25
63689;BMP280;54895;40.928;14.480;2023-03-23T00:15:28;100985.13;;;14.26
63689;BMP280;54895;40.928;14.480;2023-03-23T00:17:59;100990.88;;;14.30
63689;BMP280;54895;40.928;14.480;2023-03-23T00:20:28;100999.53;;;14.51
63689;BMP280;54895;40.928;14.480;2023-03-23T00:23:06;101039.59;;;14.79
63689;BMP280;54895;40.928;14.480;2023-03-23T00:25:33;101032.34;;;14.44
63689;BMP280;54895;40.928;14.480;2023-03-23T00:28:00;100971.78;;;13.98
63689;BMP280;54895;40.928;14.480;2023-03-23T00:30:26;100939.22;;;13.79
63689;BMP280;54895;40.928;14.480;2023-03-23T00:32:53;100919.19;;;13.73
63689;BMP280;54895;40.928;14.480;2023-03-23T00:35:19;100912.09;;;13.75
63689;BMP280;54895;40.928;14.480;2023-03-23T00:37:46;100897.28;;;13.74
63689;BMP280;54895;40.928;14.480;2023-03-23T00:40:12;100901.41;;;13.75
63689;BMP280;54895;40.928;14.480;2023-03-23T00:42:39;100913.59;;;13.91
63689;BMP280;54895;40.928;14.480;2023-03-23T00:45:06;100921.84;;;13.93
63689;BMP280;54895;40.928;14.480;2023-03-23T00:47:37;100931.47;;;13.96
63689;BMP280;54895;40.928;14.480;2023-03-23T00:50:04;100930.06;;;14.03
63689;BMP280;54895;40.928;14.480;2023-03-23T00:52:31;100936.63;;;13.94
63689;BMP280;54895;40.928;14.480;2023-03-23T00:54:57;100934.63;;;13.87
63689;BMP280;54895;40.928;14.480;2023-03-23T00:57:25;100932.13;;;13.82
63689;BMP280;54895;40.928;14.480;2023-03-23T00:59:51;100959.34;;;14.08
63689;BMP280;54895;40.928;14.480;2023-03-23T01:02:18;100984.69;;;14.07
63689;BMP280;54895;40.928;14.480;2023-03-23T01:04:45;100976.38;;;13.90
63689;BMP280;54895;40.928;14.480;2023-03-23T01:07:14;100965.97;;;13.79
63689;BMP280;54895;40.928;14.480;2023-03-23T01:09:40;100952.31;;;13.62
63689;BMP280;54895;40.928;14.480;2023-03-23T01:12:12;100953.25;;;13.72
63689;BMP280;54895;40.928;14.480;2023-03-23T01:14:38;100970.28;;;13.90
63689;BMP280;54895;40.928;14.480;2023-03-23T01:17:07;100971.03;;;13.90
63689;BMP280;54895;40.928;14.480;2023-03-23T01:19:34;100983.72;;;13.97
63689;BMP280;54895;40.928;14.480;2023-03-23T01:22:01;100987.84;;;13.98
63689;BMP280;54895;40.928;14.480;2023-03-23T01:24:27;100976.84;;;13.81
63689;BMP280;54895;40.928;14.480;2023-03-23T01:26:54;100967.47;;;13.67
63689;BMP280;54895;40.928;14.480;2023-03-23T01:29:22;100946.63;;;13.45
63689;BMP280;54895;40.928;14.480;2023-03-23T01:31:49;100927.88;;;13.38
63689;BMP280;54895;40.928;14.480;2023-03-23T01:34:16;100924.78;;;13.27
63689;BMP280;54895;40.928;14.480;2023-03-23T01:36:43;100941.81;;;13.44
63689;BMP280;54895;40.928;14.480;2023-03-23T01:39:09;100940.72;;;13.39
63689;BMP280;54895;40.928;14.480;2023-03-23T01:41:37;100943.63;;;13.28
63689;BMP280;54895;40.928;14.480;2023-03-23T01:46:47;100897.81;;;12.84
63689;BMP280;54895;40.928;14.480;2023-03-23T01:49:17;100912.19;;;12.94
63689;BMP280;54895;40.928;14.480;2023-03-23T01:51:49;100904.59;;;12.85
63689;BMP280;54895;40.928;14.480;2023-03-23T01:54:19;100897.44;;;12.80
63689;BMP280;54895;40.928;14.480;2023-03-23T01:56:59;100905.41;;;12.93
63689;BMP280;54895;40.928;14.480;2023-03-23T01:59:27;100913.09;;;12.96
63689;BMP280;54895;40.928;14.480;2023-03-23T02:02:14;100923.66;;;13.02
63689;BMP280;54895;40.928;14.480;2023-03-23T02:04:42;100944.38;;;13.09
63689;BMP280;54895;40.928;14.480;2023-03-23T02:07:12;100938.97;;;13.01
63689;BMP280;54895;40.928;14.480;2023-03-23T02:09:40;100924.78;;;12.73
63689;BMP280;54895;40.928;14.480;2023-03-23T02:12:06;100936.63;;;12.85
63689;BMP280;54895;40.928;14.480;2023-03-23T02:14:35;100938.59;;;12.84
63689;BMP280;54895;40.928;14.480;2023-03-23T02:17:03;100963.91;;;13.04
63689;BMP280;54895;40.928;14.480;2023-03-23T02:25:16;100986.28;;;12.67
63689;BMP280;54895;40.928;14.480;2023-03-23T02:39:08;101011.06;;;13.14
63689;BMP280;54895;40.928;14.480;2023-03-23T02:41:41;100989.19;;;13.03
63689;BMP280;54895;40.928;14.480;2023-03-23T02:44:08;100948.81;;;12.73
63689;BMP280;54895;40.928;14.480;2023-03-23T02:46:39;100946.72;;;12.79
63689;BMP280;54895;40.928;14.480;2023-03-23T02:49:09;100948.75;;;12.86
63689;BMP280;54895;40.928;14.480;2023-03-23T02:51:39;100948.50;;;12.97
63689;BMP280;54895;40.928;14.480;2023-03-23T02:54:09;100949.56;;;12.94
63689;BMP280;54895;40.928;14.480;2023-03-23T02:56:36;100946.94;;;12.81
63689;BMP280;54895;40.928;14.480;2023-03-23T02:59:09;100952.84;;;13.00
63689;BMP280;54895;40.928;14.480;2023-03-23T03:04:16;101028.72;;;13.37
63689;BMP280;54895;40.928;14.480;2023-03-23T03:06:47;101000.28;;;13.07
63689;BMP280;54895;40.928;14.480;2023-03-23T03:11:50;101011.94;;;13.37
63689;BMP280;54895;40.928;14.480;2023-03-23T03:14:33;100996.91;;;13.27
63689;BMP280;54895;40.928;14.480;2023-03-23T03:17:13;100932.38;;;12.69
63689;BMP280;54895;40.928;14.480;2023-03-23T03:19:43;100889.56;;;12.74
63689;BMP280;54895;40.928;14.480;2023-03-23T03:22:13;100919.31;;;12.99
63689;BMP280;54895;40.928;14.480;2023-03-23T03:24:41;100908.00;;;13.06
63689;BMP280;54895;40.928;14.480;2023-03-23T03:27:16;100896.81;;;12.87
63689;BMP280;54895;40.928;14.480;2023-03-23T03:29:49;100899.75;;;12.76
63689;BMP280;54895;40.928;14.480;2023-03-23T03:32:22;100892.56;;;12.58
63689;BMP280;54895;40.928;14.480;2023-03-23T03:34:49;100854.25;;;12.35
63689;BMP280;54895;40.928;14.480;2023-03-23T03:37:20;100851.22;;;12.51
63689;BMP280;54895;40.928;14.480;2023-03-23T03:39:48;100857.88;;;12.58
63689;BMP280;54895;40.928;14.480;2023-03-23T03:42:15;100846.16;;;12.61
63689;BMP280;54895;40.928;14.480;2023-03-23T03:44:41;100849.81;;;12.71
63689;BMP280;54895;40.928;14.480;2023-03-23T03:47:08;100859.69;;;12.76
63689;BMP280;54895;40.928;14.480;2023-03-23T03:49:34;100919.41;;;13.06
63689;BMP280;54895;40.928;14.480;2023-03-23T03:52:01;100917.13;;;12.90
63689;BMP280;54895;40.928;14.480;2023-03-23T03:54:37;100925.41;;;12.99
63689;BMP280;54895;40.928;14.480;2023-03-23T03:57:03;100911.81;;;12.90
63689;BMP280;54895;40.928;14.480;2023-03-23T03:59:50;100900.50;;;12.84
63689;BMP280;54895;40.928;14.480;2023-03-23T04:02:20;100905.78;;;12.97
63689;BMP280;54895;40.928;14.480;2023-03-23T04:04:49;100903.31;;;12.99
63689;BMP280;54895;40.928;14.480;2023-03-23T04:07:18;100960.94;;;13.27
63689;BMP280;54895;40.928;14.480;2023-03-23T04:09:45;100947.09;;;12.96
63689;BMP280;54895;40.928;14.480;2023-03-23T04:12:15;100908.13;;;12.80
63689;BMP280;54895;40.928;14.480;2023-03-23T04:15:11;100907.19;;;12.57
63689;BMP280;54895;40.928;14.480;2023-03-23T04:17:38;100898.53;;;12.51
63689;BMP280;54895;40.928;14.480;2023-03-23T04:20:08;100886.47;;;12.50
63689;BMP280;54895;40.928;14.480;2023-03-23T04:22:41;100871.09;;;12.43
63689;BMP280;54895;40.928;14.480;2023-03-23T04:25:11;100854.78;;;12.20
63689;BMP280;54895;40.928;14.480;2023-03-23T04:27:41;100858.53;;;12.38
63689;BMP280;54895;40.928;14.480;2023-03-23T04:30:13;100912.50;;;12.57
63689;BMP280;54895;40.928;14.480;2023-03-23T04:32:50;100924.59;;;12.58
63689;BMP280;54895;40.928;14.480;2023-03-23T04:35:23;100921.16;;;12.50
63689;BMP280;54895;40.928;14.480;2023-03-23T04:38:04;100922.59;;;12.38
63689;BMP280;54895;40.928;14.480;2023-03-23T04:40:31;100919.75;;;12.36
63689;BMP280;54895;40.928;14.480;2023-03-23T04:43:11;100925.22;;;12.51
63689;BMP280;54895;40.928;14.480;2023-03-23T04:46:00;100917.25;;;12.38
63689;BMP280;54895;40.928;14.480;2023-03-23T04:48:30;100930.16;;;12.60
63689;BMP280;54895;40.928;14.480;2023-03-23T04:51:26;100969.66;;;12.74
63689;BMP280;54895;40.928;14.480;2023-03-23T04:53:54;100970.56;;;12.64
63689;BMP280;54895;40.928;14.480;2023-03-23T04:56:23;100955.34;;;12.38
63689;BMP280;54895;40.928;14.480;2023-03-23T04:58:53;100942.72;;;12.26
63689;BMP280;54895;40.928;14.480;2023-03-23T05:01:33;100932.44;;;12.30
63689;BMP280;54895;40.928;14.480;2023-03-23T05:04:23;100941.28;;;12.12
63689;BMP280;54895;40.928;14.480;2023-03-23T05:07:13;100933.72;;;12.16
63689;BMP280;54895;40.928;14.480;2023-03-23T05:09:48;100943.53;;;12.34
63689;BMP280;54895;40.928;14.480;2023-03-23T05:12:18;100954.22;;;12.34
63689;BMP280;54895;40.928;14.480;2023-03-23T05:14:51;100954.94;;;12.08
63689;BMP280;54895;40.928;14.480;2023-03-23T05:17:20;100953.19;;;12.11
63689;BMP280;54895;40.928;14.480;2023-03-23T05:19:52;100932.69;;;11.93
63689;BMP280;54895;40.928;14.480;2023-03-23T05:22:33;100963.56;;;12.14
63689;BMP280;54895;40.928;14.480;2023-03-23T05:25:03;100967.66;;;12.02
63689;BMP280;54895;40.928;14.480;2023-03-23T05:27:33;100981.13;;;12.23
63689;BMP280;54895;40.928;14.480;2023-03-23T05:30:08;100991.56;;;12.34
63689;BMP280;54895;40.928;14.480;2023-03-23T05:32:38;101010.34;;;12.28
63689;BMP280;54895;40.928;14.480;2023-03-23T05:35:21;100999.34;;;12.32
63689;BMP280;54895;40.928;14.480;2023-03-23T05:37:51;101014.34;;;12.48
63689;BMP280;54895;40.928;14.480;2023-03-23T05:40:20;101025.63;;;12.67
63689;BMP280;54895;40.928;14.480;2023-03-23T05:42:54;101038.63;;;12.70
63689;BMP280;54895;40.928;14.480;2023-03-23T05:45:29;101046.72;;;12.91
63689;BMP280;54895;40.928;14.480;2023-03-23T05:47:56;101060.88;;;13.12
63689;BMP280;54895;40.928;14.480;2023-03-23T05:50:25;101075.88;;;13.15
63689;BMP280;54895;40.928;14.480;2023-03-23T05:52:52;101075.47;;;13.11
63689;BMP280;54895;40.928;14.480;2023-03-23T05:55:21;101078.75;;;13.17
63689;BMP280;54895;40.928;14.480;2023-03-23T05:57:56;101064.88;;;13.18
63689;BMP280;54895;40.928;14.480;2023-03-23T06:00:33;101068.22;;;13.31
63689;BMP280;54895;40.928;14.480;2023-03-23T06:03:17;101090.94;;;13.58
63689;BMP280;54895;40.928;14.480;2023-03-23T06:10:24;101103.28;;;13.82
63689;BMP280;54895;40.928;14.480;2023-03-23T06:13:01;101129.28;;;14.22
63689;BMP280;54895;40.928;14.480;2023-03-23T06:15:35;101162.78;;;14.64
63689;BMP280;54895;40.928;14.480;2023-03-23T06:18:14;101175.22;;;14.54
63689;BMP280;54895;40.928;14.480;2023-03-23T06:20:59;101156.25;;;14.52
63689;BMP280;54895;40.928;14.480;2023-03-23T06:23:41;101171.06;;;14.81
63689;BMP280;54895;40.928;14.480;2023-03-23T06:26:11;101155.19;;;14.55
63689;BMP280;54895;40.928;14.480;2023-03-23T06:28:44;101161.81;;;14.54
63689;BMP280;54895;40.928;14.480;2023-03-23T06:31:10;101157.53;;;14.87
63689;BMP280;54895;40.928;14.480;2023-03-23T06:33:38;101170.47;;;15.03
63689;BMP280;54895;40.928;14.480;2023-03-23T06:36:25;101189.97;;;15.54
63689;BMP280;54895;40.928;14.480;2023-03-23T06:39:03;101202.88;;;15.78
63689;BMP280;54895;40.928;14.480;2023-03-23T06:41:43;101217.00;;;15.94
63689;BMP280;54895;40.928;14.480;2023-03-23T06:44:10;101232.25;;;16.21
63689;BMP280;54895;40.928;14.480;2023-03-23T06:46:41;101238.69;;;16.33
63689;BMP280;54895;40.928;14.480;2023-03-23T06:49:20;101254.81;;;16.55
63689;BMP280;54895;40.928;14.480;2023-03-23T06:51:55;101274.47;;;16.73
63689;BMP280;54895;40.928;14.480;2023-03-23T06:54:24;101264.47;;;16.51
63689;BMP280;54895;40.928;14.480;2023-03-23T06:56:51;101273.19;;;16.81
63689;BMP280;54895;40.928;14.480;2023-03-23T06:59:18;101265.50;;;16.85
63689;BMP280;54895;40.928;14.480;2023-03-23T07:01:46;101278.38;;;17.02
63689;BMP280;54895;40.928;14.480;2023-03-23T07:04:17;101283.34;;;17.13
63689;BMP280;54895;40.928;14.480;2023-03-23T07:06:51;101277.78;;;17.18
63689;BMP280;54895;40.928;14.480;2023-03-23T07:09:19;101264.72;;;17.07
63689;BMP280;54895;40.928;14.480;2023-03-23T07:11:47;101274.28;;;17.40
63689;BMP280;54895;40.928;14.480;2023-03-23T07:14:23;101277.44;;;17.54
63689;BMP280;54895;40.928;14.480;2023-03-23T07:16:50;101296.50;;;18.05
63689;BMP280;54895;40.928;14.480;2023-03-23T07:19:17;101301.31;;;18.14
63689;BMP280;54895;40.928;14.480;2023-03-23T07:21:43;101314.97;;;18.33
63689;BMP280;54895;40.928;14.480;2023-03-23T07:24:13;101314.00;;;18.21
63689;BMP280;54895;40.928;14.480;2023-03-23T07:26:53;101308.16;;;18.32
63689;BMP280;54895;40.928;14.480;2023-03-23T07:29:20;101315.19;;;18.69
63689;BMP280;54895;40.928;14.480;2023-03-23T07:31:50;101326.63;;;18.77
63689;BMP280;54895;40.928;14.480;2023-03-23T07:34:18;101318.38;;;18.91
63689;BMP280;54895;40.928;14.480;2023-03-23T07:36:59;101324.88;;;19.05
63689;BMP280;54895;40.928;14.480;2023-03-23T07:39:28;101316.50;;;19.01
63689;BMP280;54895;40.928;14.480;2023-03-23T07:41:59;101329.00;;;19.23
63689;BMP280;54895;40.928;14.480;2023-03-23T07:44:35;101308.97;;;19.26
63689;BMP280;54895;40.928;14.480;2023-03-23T07:47:07;101294.72;;;19.16
63689;BMP280;54895;40.928;14.480;2023-03-23T07:49:35;101280.06;;;19.36
63689;BMP280;54895;40.928;14.480;2023-03-23T07:52:26;101291.72;;;19.65
63689;BMP280;54895;40.928;14.480;2023-03-23T07:54:52;101316.25;;;19.86
63689;BMP280;54895;40.928;14.480;2023-03-23T07:57:27;101303.31;;;19.75
63689;BMP280;54895;40.928;14.480;2023-03-23T07:59:56;101300.03;;;19.77
63689;BMP280;54895;40.928;14.480;2023-03-23T08:02:24;101292.69;;;19.87
63689;BMP280;54895;40.928;14.480;2023-03-23T08:05:16;101296.50;;;19.84
63689;BMP280;54895;40.928;14.480;2023-03-23T08:08:00;101304.78;;;19.59
63689;BMP280;54895;40.928;14.480;2023-03-23T08:10:33;101312.44;;;19.89
63689;BMP280;54895;40.928;14.480;2023-03-23T08:13:22;101314.31;;;19.96
63689;BMP280;54895;40.928;14.480;2023-03-23T08:16:11;101316.00;;;19.92
63689;BMP280;54895;40.928;14.480;2023-03-23T08:18:54;101297.59;;;19.71
63689;BMP280;54895;40.928;14.480;2023-03-23T08:21:39;101292.66;;;19.77
63689;BMP280;54895;40.928;14.480;2023-03-23T08:24:28;101283.94;;;20.05
63689;BMP280;54895;40.928;14.480;2023-03-23T08:27:02;101270.06;;;19.82
63689;BMP280;54895;40.928;14.480;2023-03-23T08:29:52;101284.94;;;20.19
63689;BMP280;54895;40.928;14.480;2023-03-23T08:32:38;101273.69;;;20.04
63689;BMP280;54895;40.928;14.480;2023-03-23T08:35:24;101296.75;;;20.24
63689;BMP280;54895;40.928;14.480;2023-03-23T08:38:00;101264.44;;;19.97
63689;BMP280;54895;40.928;14.480;2023-03-23T08:40:46;101300.09;;;20.41
63689;BMP280;54895;40.928;14.480;2023-03-23T08:43:37;101288.66;;;19.78
63689;BMP280;54895;40.928;14.480;2023-03-23T08:46:34;101247.72;;;19.82
63689;BMP280;54895;40.928;14.480;2023-03-23T08:49:17;101294.22;;;20.26
63689;BMP280;54895;40.928;14.480;2023-03-23T08:52:13;101313.19;;;20.63
63689;BMP280;54895;40.928;14.480;2023-03-23T08:54:58;101303.25;;;20.47
63689;BMP280;54895;40.928;14.480;2023-03-23T08:57:45;101309.50;;;20.59
63689;BMP280;54895;40.928;14.480;2023-03-23T09:00:27;101343.19;;;21.05
63689;BMP280;54895;40.928;14.480;2023-03-23T09:03:14;101339.50;;;21.10
63689;BMP280;54895;40.928;14.480;2023-03-23T09:06:00;101360.44;;;21.19
63689;BMP280;54895;40.928;14.480;2023-03-23T09:08:36;101347.88;;;21.43
63689;BMP280;54895;40.928;14.480;2023-03-23T09:11:08;101366.59;;;21.60
63689;BMP280;54895;40.928;14.480;2023-03-23T09:13:37;101367.78;;;21.97
63689;BMP280;54895;40.928;14.480;2023-03-23T09:16:04;101390.63;;;22.45
63689;BMP280;54895;40.928;14.480;2023-03-23T09:18:49;101388.84;;;22.28
63689;BMP280;54895;40.928;14.480;2023-03-23T09:21:16;101396.44;;;22.51
63689;BMP280;54895;40.928;14.480;2023-03-23T09:23:45;101408.25;;;22.55
63689;BMP280;54895;40.928;14.480;2023-03-23T09:26:11;101406.78;;;22.64
63689;BMP280;54895;40.928;14.480;2023-03-23T09:28:39;101410.31;;;22.66
63689;BMP280;54895;40.928;14.480;2023-03-23T09:31:06;101406.06;;;22.63
63689;BMP280;54895;40.928;14.480;2023-03-23T09:33:32;101403.13;;;22.50
63689;BMP280;54895;40.928;14.480;2023-03-23T09:36:02;101367.22;;;21.49
63689;BMP280;54895;40.928;14.480;2023-03-23T09:38:31;101383.78;;;22.14
63689;BMP280;54895;40.928;14.480;2023-03-23T09:47:03;101364.72;;;21.13
63689;BMP280;54895;40.928;14.480;2023-03-23T09:49:32;101367.44;;;21.22
63689;BMP280;54895;40.928;14.480;2023-03-23T09:52:08;101357.03;;;20.81
63689;BMP280;54895;40.928;14.480;2023-03-23T09:57:12;101339.19;;;21.16
63689;BMP280;54895;40.928;14.480;2023-03-23T09:59:49;101341.75;;;21.42
63689;BMP280;54895;40.928;14.480;2023-03-23T10:02:36;101302.34;;;21.11
63689;BMP280;54895;40.928;14.480;2023-03-23T10:07:50;101338.34;;;21.82
63689;BMP280;54895;40.928;14.480;2023-03-23T10:10:16;101352.13;;;21.46
63689;BMP280;54895;40.928;14.480;2023-03-23T10:15:34;101330.03;;;21.40
63689;BMP280;54895;40.928;14.480;2023-03-23T10:18:15;101345.03;;;21.41
63689;BMP280;54895;40.928;14.480;2023-03-23T10:28:44;101372.75;;;22.51
63689;BMP280;54895;40.928;14.480;2023-03-23T10:31:18;101348.59;;;22.34
63689;BMP280;54895;40.928;14.480;2023-03-23T10:33:47;101363.28;;;22.31
63689;BMP280;54895;40.928;14.480;2023-03-23T10:36:23;101363.63;;;22.47
63689;BMP280;54895;40.928;14.480;2023-03-23T10:39:03;101375.81;;;22.57
63689;BMP280;54895;40.928;14.480;2023-03-23T10:41:31;101384.91;;;23.15
63689;BMP280;54895;40.928;14.480;2023-03-23T10:43:58;101378.97;;;23.51
63689;BMP280;54895;40.928;14.480;2023-03-23T10:48:54;101388.97;;;23.49
63689;BMP280;54895;40.928;14.480;2023-03-23T10:51:28;101384.78;;;23.13
63689;BMP280;54895;40.928;14.480;2023-03-23T10:53:58;101381.97;;;23.11
63689;BMP280;54895;40.928;14.480;2023-03-23T10:56:28;101372.47;;;22.47
63689;BMP280;54895;40.928;14.480;2023-03-23T10:58:55;101371.94;;;22.39
63689;BMP280;54895;40.928;14.480;2023-03-23T11:01:32;101368.59;;;22.71
63689;BMP280;54895;40.928;14.480;2023-03-23T11:04:00;101382.91;;;23.16
63689;BMP280;54895;40.928;14.480;2023-03-23T11:06:30;101386.28;;;23.60
63689;BMP280;54895;40.928;14.480;2023-03-23T11:09:34;101393.59;;;24.15
63689;BMP280;54895;40.928;14.480;2023-03-23T11:12:02;101396.09;;;23.65
63689;BMP280;54895;40.928;14.480;2023-03-23T11:14:31;101386.16;;;23.47
63689;BMP280;54895;40.928;14.480;2023-03-23T11:17:01;101387.72;;;23.84
63689;BMP280;54895;40.928;14.480;2023-03-23T11:19:31;101390.13;;;23.23
63689;BMP280;54895;40.928;14.480;2023-03-23T11:22:07;101379.00;;;23.30
63689;BMP280;54895;40.928;14.480;2023-03-23T11:24:40;101384.41;;;23.51
63689;BMP280;54895;40.928;14.480;2023-03-23T11:27:07;101396.91;;;23.56
63689;BMP280;54895;40.928;14.480;2023-03-23T11:29:36;101386.69;;;23.22
63689;BMP280;54895;40.928;14.480;2023-03-23T11:32:09;101391.69;;;23.49
63689;BMP280;54895;40.928;14.480;2023-03-23T11:34:46;101388.91;;;23.58
63689;BMP280;54895;40.928;14.480;2023-03-23T11:37:28;101372.56;;;23.35
63689;BMP280;54895;40.928;14.480;2023-03-23T11:39:57;101386.41;;;23.85
63689;BMP280;54895;40.928;14.480;2023-03-23T11:42:34;101375.91;;;23.68
63689;BMP280;54895;40.928;14.480;2023-03-23T11:45:21;101386.97;;;23.49
63689;BMP280;54895;40.928;14.480;2023-03-23T11:50:49;101375.16;;;23.33
63689;BMP280;54895;40.928;14.480;2023-03-23T11:58:49;101377.63;;;23.29
63689;BMP280;54895;40.928;14.480;2023-03-23T12:01:28;101375.63;;;23.41
63689;BMP280;54895;40.928;14.480;2023-03-23T12:04:16;101375.75;;;23.43
63689;BMP280;54895;40.928;14.480;2023-03-23T12:24:30;101355.31;;;23.42
63689;BMP280;54895;40.928;14.480;2023-03-23T12:29:44;101348.22;;;23.60
63689;BMP280;54895;40.928;14.480;2023-03-23T12:44:00;101338.59;;;23.02
63689;BMP280;54895;40.928;14.480;2023-03-23T12:57:37;101322.97;;;23.46
63689;BMP280;54895;40.928;14.480;2023-03-23T13:00:19;101330.28;;;23.32
63689;BMP280;54895;40.928;14.480;2023-03-23T13:03:02;101331.19;;;23.14
63689;BMP280;54895;40.928;14.480;2023-03-23T13:12:10;101313.81;;;23.07
63689;BMP280;54895;40.928;14.480;2023-03-23T13:17:48;101319.13;;;23.05
63689;BMP280;54895;40.928;14.480;2023-03-23T13:20:47;101318.72;;;23.43
63689;BMP280;54895;40.928;14.480;2023-03-23T13:23:22;101318.47;;;23.62
63689;BMP280;54895;40.928;14.480;2023-03-23T13:26:03;101302.88;;;23.28
63689;BMP280;54895;40.928;14.480;2023-03-23T13:28:57;101295.06;;;23.00
63689;BMP280;54895;40.928;14.480;2023-03-23T13:31:34;101301.88;;;22.89
63689;BMP280;54895;40.928;14.480;2023-03-23T13:36:54;101289.19;;;23.49
63689;BMP280;54895;40.928;14.480;2023-03-23T13:39:26;101295.75;;;23.00
63689;BMP280;54895;40.928;14.480;2023-03-23T13:49:51;101301.81;;;23.33
63689;BMP280;54895;40.928;14.480;2023-03-23T13:52:24;101301.34;;;23.48
63689;BMP280;54895;40.928;14.480;2023-03-23T13:54:52;101297.44;;;23.28
63689;BMP280;54895;40.928;14.480;2023-03-23T14:05:43;101304.75;;;23.03
63689;BMP280;54895;40.928;14.480;2023-03-23T14:10:51;101307.59;;;23.28
63689;BMP280;54895;40.928;14.480;2023-03-23T14:13:24;101296.00;;;23.16
63689;BMP280;54895;40.928;14.480;2023-03-23T14:15:58;101316.81;;;23.11
63689;BMP280;54895;40.928;14.480;2023-03-23T14:18:30;101303.69;;;23.19
63689;BMP280;54895;40.928;14.480;2023-03-23T14:21:00;101293.41;;;23.06
63689;BMP280;54895;40.928;14.480;2023-03-23T14:23:31;101302.00;;;22.91
63689;BMP280;54895;40.928;14.480;2023-03-23T14:26:05;101284.34;;;23.25
63689;BMP280;54895;40.928;14.480;2023-03-23T14:28:42;101304.31;;;23.64
63689;BMP280;54895;40.928;14.480;2023-03-23T14:31:19;101292.94;;;23.56
63689;BMP280;54895;40.928;14.480;2023-03-23T14:33:47;101294.09;;;23.87
63689;BMP280;54895;40.928;14.480;2023-03-23T14:36:20;101302.16;;;23.62
63689;BMP280;54895;40.928;14.480;2023-03-23T14:38:46;101297.19;;;23.59
63689;BMP280;54895;40.928;14.480;2023-03-23T14:41:13;101302.38;;;23.66
63689;BMP280;54895;40.928;14.480;2023-03-23T14:43:42;101299.84;;;24.04
63689;BMP280;54895;40.928;14.480;2023-03-23T14:46:10;101301.84;;;24.04
63689;BMP280;54895;40.928;14.480;2023-03-23T14:48:39;101293.59;;;24.02
63689;BMP280;54895;40.928;14.480;2023-03-23T14:51:06;101310.28;;;23.96
63689;BMP280;54895;40.928;14.480;2023-03-23T14:53:39;101301.09;;;23.67
63689;BMP280;54895;40.928;14.480;2023-03-23T14:56:10;101313.47;;;23.93
63689;BMP280;54895;40.928;14.480;2023-03-23T14:58:38;101311.72;;;23.86
63689;BMP280;54895;40.928;14.480;2023-03-23T15:01:09;101309.81;;;23.66
63689;BMP280;54895;40.928;14.480;2023-03-23T15:03:40;101309.00;;;23.52
63689;BMP280;54895;40.928;14.480;2023-03-23T15:06:16;101313.97;;;23.32
63689;BMP280;54895;40.928;14.480;2023-03-23T15:08:45;101331.34;;;23.50
63689;BMP280;54895;40.928;14.480;2023-03-23T15:13:53;101333.47;;;23.86
63689;BMP280;54895;40.928;14.480;2023-03-23T15:16:29;101336.41;;;23.78
63689;BMP280;54895;40.928;14.480;2023-03-23T15:18:59;101327.34;;;23.74
63689;BMP280;54895;40.928;14.480;2023-03-23T15:21:28;101330.69;;;24.09
63689;BMP280;54895;40.928;14.480;2023-03-23T15:23:55;101313.69;;;23.97
63689;BMP280;54895;40.928;14.480;2023-03-23T15:26:43;101342.03;;;24.17
63689;BMP280;54895;40.928;14.480;2023-03-23T15:31:55;101347.47;;;24.17
63689;BMP280;54895;40.928;14.480;2023-03-23T15:34:29;101334.72;;;24.08
63689;BMP280;54895;40.928;14.480;2023-03-23T15:37:03;101335.63;;;24.24
63689;BMP280;54895;40.928;14.480;2023-03-23T15:39:31;101341.72;;;23.99
63689;BMP280;54895;40.928;14.480;2023-03-23T15:41:59;101350.00;;;23.78
63689;BMP280;54895;40.928;14.480;2023-03-23T15:44:33;101349.16;;;23.99
63689;BMP280;54895;40.928;14.480;2023-03-23T15:47:21;101345.09;;;24.11
63689;BMP280;54895;40.928;14.480;2023-03-23T15:49:59;101344.13;;;24.30
63689;BMP280;54895;40.928;14.480;2023-03-23T15:52:28;101352.69;;;24.13
63689;BMP280;54895;40.928;14.480;2023-03-23T15:54:54;101334.06;;;23.50
63689;BMP280;54895;40.928;14.480;2023-03-23T15:57:21;101356.75;;;23.66
63689;BMP280;54895;40.928;14.480;2023-03-23T15:59:47;101348.81;;;23.93
63689;BMP280;54895;40.928;14.480;2023-03-23T16:02:21;101327.19;;;23.95
63689;BMP280;54895;40.928;14.480;2023-03-23T16:04:49;101367.31;;;24.31
63689;BMP280;54895;40.928;14.480;2023-03-23T16:07:16;101366.38;;;24.26
63689;BMP280;54895;40.928;14.480;2023-03-23T16:09:44;101371.72;;;24.13
63689;BMP280;54895;40.928;14.480;2023-03-23T16:12:11;101366.19;;;23.42
63689;BMP280;54895;40.928;14.480;2023-03-23T16:14:39;101372.88;;;23.18
63689;BMP280;54895;40.928;14.480;2023-03-23T16:17:10;101375.84;;;23.22
63689;BMP280;54895;40.928;14.480;2023-03-23T16:19:38;101392.28;;;24.16
63689;BMP280;54895;40.928;14.480;2023-03-23T16:22:05;101390.03;;;25.23
63689;BMP280;54895;40.928;14.480;2023-03-23T16:24:32;101390.19;;;25.39
63689;BMP280;54895;40.928;14.480;2023-03-23T16:26:58;101400.72;;;25.71
63689;BMP280;54895;40.928;14.480;2023-03-23T16:29:24;101395.16;;;25.69
63689;BMP280;54895;40.928;14.480;2023-03-23T16:31:51;101404.13;;;26.54
63689;BMP280;54895;40.928;14.480;2023-03-23T16:34:18;101398.16;;;26.58
63689;BMP280;54895;40.928;14.480;2023-03-23T16:36:44;101395.28;;;26.27
63689;BMP280;54895;40.928;14.480;2023-03-23T16:39:11;101399.25;;;26.53
63689;BMP280;54895;40.928;14.480;2023-03-23T16:41:37;101389.41;;;25.90